createdAt,value
2023-03-03T00:00:23.053Z,0
2023-03-03T00:01:23.043Z,0
2023-03-03T00:02:23.113Z,0
2023-03-03T00:03:23.128Z,0
2023-03-03T00:04:23.052Z,0
2023-03-03T00:05:23.049Z,0
2023-03-03T00:06:23.046Z,0
2023-03-03T00:07:23.076Z,0
2023-03-03T00:08:23.141Z,0
2023-03-03T00:09:23.054Z,0
2023-03-03T00:10:23.050Z,0
2023-03-03T00:11:23.058Z,0
2023-03-03T00:12:23.073Z,0
2023-03-03T00:13:23.091Z,0
2023-03-03T00:14:23.053Z,0
2023-03-03T00:15:23.056Z,0
2023-03-03T00:16:23.112Z,0
2023-03-03T00:17:23.054Z,0
2023-03-03T00:18:23.057Z,0
2023-03-03T00:19:23.060Z,0
2023-03-03T00:20:23.058Z,0
2023-03-03T00:21:23.065Z,0
2023-03-03T00:22:23.060Z,0
2023-03-03T00:23:23.059Z,0
2023-03-03T00:24:23.094Z,0
2023-03-03T00:25:23.063Z,0
2023-03-03T00:26:23.066Z,0
2023-03-03T00:27:23.065Z,0
2023-03-03T00:28:23.068Z,0
2023-03-03T00:29:23.087Z,0
2023-03-03T00:30:23.066Z,0
2023-03-03T00:31:23.112Z,0
2023-03-03T00:32:23.244Z,0
2023-03-03T00:33:23.068Z,0
2023-03-03T00:34:23.069Z,0
2023-03-03T00:35:23.126Z,0
2023-03-03T00:36:23.075Z,0
2023-03-03T00:37:23.067Z,0
2023-03-03T00:38:23.072Z,0
2023-03-03T00:39:23.069Z,0
2023-03-03T00:40:23.072Z,0
2023-03-03T00:41:23.072Z,0
2023-03-03T00:42:23.078Z,0
2023-03-03T00:43:23.068Z,0
2023-03-03T00:44:23.085Z,0
2023-03-03T00:45:23.097Z,0
2023-03-03T00:46:23.132Z,0
2023-03-03T00:47:23.076Z,0
2023-03-03T00:48:23.084Z,0
2023-03-03T00:49:23.072Z,0
2023-03-03T00:50:23.078Z,0
2023-03-03T00:51:23.103Z,0
2023-03-03T00:52:23.073Z,0
2023-03-03T00:53:23.078Z,0
2023-03-03T00:54:23.078Z,0
2023-03-03T00:55:23.072Z,0
2023-03-03T00:56:23.075Z,0
2023-03-03T00:57:23.075Z,0
2023-03-03T00:58:23.092Z,0
2023-03-03T00:59:23.079Z,0
2023-03-03T01:00:23.073Z,0
2023-03-03T01:01:23.162Z,0
2023-03-03T01:02:23.156Z,0
2023-03-03T01:03:23.079Z,0
2023-03-03T01:04:23.078Z,0
2023-03-03T01:05:23.075Z,0
2023-03-03T01:06:23.075Z,0
2023-03-03T01:07:23.081Z,0
2023-03-03T01:08:23.083Z,0
2023-03-03T01:09:23.078Z,0
2023-03-03T01:10:23.083Z,0
2023-03-03T01:11:23.078Z,0
2023-03-03T01:12:23.081Z,0
2023-03-03T01:13:23.083Z,0
2023-03-03T01:14:23.202Z,0
2023-03-03T01:15:23.085Z,0
2023-03-03T01:16:23.179Z,0
2023-03-03T01:17:23.112Z,0
2023-03-03T01:18:23.088Z,0
2023-03-03T01:19:23.086Z,0
2023-03-03T01:20:23.089Z,0
2023-03-03T01:21:23.097Z,0
2023-03-03T01:22:23.101Z,0
2023-03-03T01:23:23.092Z,0
2023-03-03T01:24:23.092Z,0
2023-03-03T01:25:23.091Z,0
2023-03-03T01:26:23.098Z,0
2023-03-03T01:27:23.096Z,0
2023-03-03T01:28:23.096Z,0
2023-03-03T01:29:23.104Z,0
2023-03-03T01:30:23.098Z,0
2023-03-03T01:31:23.151Z,0
2023-03-03T01:32:23.164Z,0
2023-03-03T01:33:23.132Z,0
2023-03-03T01:34:23.100Z,0
2023-03-03T01:35:23.124Z,0
2023-03-03T01:36:23.101Z,0
2023-03-03T01:37:23.101Z,0
2023-03-03T01:38:23.103Z,0
2023-03-03T01:39:23.103Z,0
2023-03-03T01:40:23.102Z,0
2023-03-03T01:41:23.108Z,0
2023-03-03T01:42:23.104Z,0
2023-03-03T01:43:23.116Z,0
2023-03-03T01:44:23.104Z,0
2023-03-03T01:45:23.106Z,0
2023-03-03T01:46:23.158Z,0
2023-03-03T01:47:23.113Z,0
2023-03-03T01:48:23.124Z,0
2023-03-03T01:49:23.136Z,0
2023-03-03T01:50:23.114Z,0
2023-03-03T01:51:23.123Z,0
2023-03-03T01:52:23.118Z,0
2023-03-03T01:53:23.118Z,0
2023-03-03T01:54:23.124Z,0
2023-03-03T01:55:23.122Z,0
2023-03-03T01:56:23.124Z,0
2023-03-03T01:57:23.124Z,0
2023-03-03T01:58:23.122Z,0
2023-03-03T01:59:23.128Z,0
2023-03-03T02:00:23.132Z,0
2023-03-03T02:01:23.190Z,0
2023-03-03T02:02:23.143Z,0
2023-03-03T02:03:23.174Z,0
2023-03-03T02:04:23.145Z,0
2023-03-03T02:05:23.166Z,0
2023-03-03T02:06:23.139Z,0
2023-03-03T02:07:23.139Z,0
2023-03-03T02:08:23.138Z,0
2023-03-03T02:09:23.139Z,0
2023-03-03T02:10:23.141Z,0
2023-03-03T02:11:23.140Z,0
2023-03-03T02:12:23.140Z,0
2023-03-03T02:13:23.160Z,0
2023-03-03T02:14:23.150Z,0
2023-03-03T02:15:23.167Z,0
2023-03-03T02:16:23.201Z,0
2023-03-03T02:17:23.155Z,0
2023-03-03T02:18:23.160Z,0
2023-03-03T02:19:23.153Z,0
2023-03-03T02:20:23.153Z,0
2023-03-03T02:21:23.198Z,0
2023-03-03T02:22:23.159Z,0
2023-03-03T02:23:23.165Z,0
2023-03-03T02:24:23.162Z,0
2023-03-03T02:25:23.166Z,0
2023-03-03T02:26:23.179Z,0
2023-03-03T02:27:23.166Z,0
2023-03-03T02:28:23.174Z,0
2023-03-03T02:29:23.165Z,0
2023-03-03T02:30:23.172Z,0
2023-03-03T02:31:23.237Z,0
2023-03-03T02:32:23.239Z,0
2023-03-03T02:33:23.180Z,0
2023-03-03T02:34:23.180Z,0
2023-03-03T02:35:23.214Z,0
2023-03-03T02:36:23.171Z,0
2023-03-03T02:37:23.206Z,0
2023-03-03T02:38:23.172Z,0
2023-03-03T02:39:23.201Z,0
2023-03-03T02:40:23.176Z,0
2023-03-03T02:41:23.178Z,0
2023-03-03T02:42:23.183Z,0
2023-03-03T02:43:23.180Z,0
2023-03-03T02:44:23.187Z,0
2023-03-03T02:45:23.232Z,0
2023-03-03T02:46:23.207Z,0
2023-03-03T02:47:23.191Z,0
2023-03-03T02:48:23.211Z,0
2023-03-03T02:49:23.177Z,0
2023-03-03T02:50:23.184Z,0
2023-03-03T02:51:23.192Z,0
2023-03-03T02:52:23.183Z,0
2023-03-03T02:53:23.202Z,0
2023-03-03T02:54:23.183Z,0
2023-03-03T02:55:23.189Z,0
2023-03-03T02:56:23.195Z,0
2023-03-03T02:57:23.188Z,0
2023-03-03T02:58:23.183Z,0
2023-03-03T02:59:23.195Z,0
2023-03-03T03:00:23.187Z,0
2023-03-03T03:01:23.311Z,0
2023-03-03T03:02:23.194Z,0
2023-03-03T03:03:23.192Z,0
2023-03-03T03:04:23.306Z,0
2023-03-03T03:05:23.188Z,0
2023-03-03T03:06:23.193Z,0
2023-03-03T03:07:23.190Z,0
2023-03-03T03:08:23.196Z,0
2023-03-03T03:09:23.219Z,0
2023-03-03T03:10:23.192Z,0
2023-03-03T03:11:23.194Z,0
2023-03-03T03:12:23.198Z,0
2023-03-03T03:13:23.201Z,0
2023-03-03T03:14:23.202Z,0
2023-03-03T03:15:23.197Z,0
2023-03-03T03:16:23.216Z,0
2023-03-03T03:17:23.204Z,0
2023-03-03T03:18:23.202Z,0
2023-03-03T03:19:23.203Z,0
2023-03-03T03:20:23.202Z,0
2023-03-03T03:21:23.204Z,0
2023-03-03T03:22:23.205Z,0
2023-03-03T03:23:23.229Z,0
2023-03-03T03:24:23.221Z,0
2023-03-03T03:25:23.241Z,0
2023-03-03T03:26:23.213Z,0
2023-03-03T03:27:23.216Z,0
2023-03-03T03:28:23.219Z,0
2023-03-03T03:29:23.227Z,0
2023-03-03T03:30:23.224Z,0
2023-03-03T03:31:23.225Z,0
2023-03-03T03:32:23.249Z,0
2023-03-03T03:33:23.225Z,0
2023-03-03T03:34:23.227Z,0
2023-03-03T03:35:23.265Z,0
2023-03-03T03:36:23.239Z,0
2023-03-03T03:37:23.226Z,0
2023-03-03T03:38:23.231Z,0
2023-03-03T03:39:23.249Z,0
2023-03-03T03:40:23.231Z,0
2023-03-03T03:41:23.267Z,0
2023-03-03T03:42:23.235Z,0
2023-03-03T03:43:23.286Z,0
2023-03-03T03:44:23.240Z,0
2023-03-03T03:45:23.240Z,0
2023-03-03T03:46:23.353Z,0
2023-03-03T03:47:23.240Z,0
2023-03-03T03:48:23.242Z,0
2023-03-03T03:49:23.244Z,0
2023-03-03T03:50:23.245Z,0
2023-03-03T03:51:23.246Z,0
2023-03-03T03:52:23.261Z,0
2023-03-03T03:53:23.251Z,0
2023-03-03T03:54:23.250Z,0
2023-03-03T03:55:23.254Z,0
2023-03-03T03:56:23.253Z,0
2023-03-03T03:57:25.043Z,0
2023-03-03T03:58:23.260Z,0
2023-03-03T03:59:23.268Z,0
2023-03-03T04:00:23.266Z,0
2023-03-03T04:01:23.265Z,0
2023-03-03T04:02:23.389Z,0
2023-03-03T04:03:23.397Z,0
2023-03-03T04:04:23.271Z,0
2023-03-03T04:05:23.310Z,0
2023-03-03T04:06:23.274Z,0
2023-03-03T04:07:23.272Z,0
2023-03-03T04:08:23.289Z,0
2023-03-03T04:09:23.300Z,0
2023-03-03T04:10:23.281Z,0
2023-03-03T04:11:23.283Z,0
2023-03-03T04:12:23.283Z,0
2023-03-03T04:13:23.305Z,0
2023-03-03T04:14:23.315Z,0
2023-03-03T04:15:23.289Z,49
2023-03-03T04:16:23.287Z,0
2023-03-03T04:17:23.293Z,0
2023-03-03T04:18:23.292Z,0
2023-03-03T04:19:23.293Z,0
2023-03-03T04:20:23.293Z,0
2023-03-03T04:21:23.300Z,0
2023-03-03T04:22:23.301Z,0
2023-03-03T04:23:23.299Z,0
2023-03-03T04:24:23.300Z,0
2023-03-03T04:25:23.301Z,0
2023-03-03T04:26:23.301Z,0
2023-03-03T04:27:23.301Z,0
2023-03-03T04:28:23.302Z,0
2023-03-03T04:29:23.323Z,0
2023-03-03T04:30:23.305Z,0
2023-03-03T04:31:23.319Z,0
2023-03-03T04:32:23.353Z,0
2023-03-03T04:33:23.302Z,0
2023-03-03T04:34:23.301Z,0
2023-03-03T04:35:23.380Z,0
2023-03-03T04:36:23.310Z,0
2023-03-03T04:37:23.308Z,0
2023-03-03T04:38:23.309Z,0
2023-03-03T04:39:23.323Z,0
2023-03-03T04:40:23.320Z,0
2023-03-03T04:41:23.314Z,0
2023-03-03T04:42:23.313Z,0
2023-03-03T04:43:23.312Z,0
2023-03-03T04:44:23.318Z,0
2023-03-03T04:45:23.342Z,0
2023-03-03T04:46:23.388Z,0
2023-03-03T04:47:23.323Z,0
2023-03-03T04:48:23.320Z,0
2023-03-03T04:49:23.318Z,0
2023-03-03T04:50:23.318Z,0
2023-03-03T04:51:23.337Z,0
2023-03-03T04:52:23.328Z,0
2023-03-03T04:53:23.338Z,0
2023-03-03T04:54:23.323Z,0
2023-03-03T04:55:23.325Z,0
2023-03-03T04:56:23.324Z,0
2023-03-03T04:57:23.329Z,0
2023-03-03T04:58:23.329Z,0
2023-03-03T04:59:23.331Z,0
2023-03-03T05:00:23.338Z,0
2023-03-03T05:01:23.379Z,0
2023-03-03T05:02:23.336Z,0
2023-03-03T05:03:23.354Z,0
2023-03-03T05:04:23.351Z,0
2023-03-03T05:05:23.333Z,0
2023-03-03T05:06:23.337Z,0
2023-03-03T05:07:23.357Z,0
2023-03-03T05:08:23.350Z,0
2023-03-03T05:09:23.337Z,0
2023-03-03T05:10:23.337Z,0
2023-03-03T05:11:23.336Z,0
2023-03-03T05:12:23.339Z,0
2023-03-03T05:13:23.349Z,0
2023-03-03T05:14:23.341Z,0
2023-03-03T05:15:23.339Z,0
2023-03-03T05:16:23.393Z,0
2023-03-03T05:17:23.383Z,0
2023-03-03T05:18:23.340Z,0
2023-03-03T05:19:23.342Z,0
2023-03-03T05:20:23.348Z,0
2023-03-03T05:21:23.344Z,0
2023-03-03T05:22:23.343Z,0
2023-03-03T05:23:23.351Z,0
2023-03-03T05:24:23.344Z,0
2023-03-03T05:25:23.354Z,0
2023-03-03T05:26:23.350Z,0
2023-03-03T05:27:23.348Z,0
2023-03-03T05:28:23.346Z,0
2023-03-03T05:29:23.353Z,0
2023-03-03T05:30:23.352Z,0
2023-03-03T05:31:23.388Z,1
2023-03-03T05:32:23.427Z,1
2023-03-03T05:33:23.380Z,1
2023-03-03T05:34:23.353Z,1
2023-03-03T05:35:23.393Z,1
2023-03-03T05:36:23.353Z,3
2023-03-03T05:37:23.355Z,3
2023-03-03T05:38:23.363Z,3
2023-03-03T05:39:23.365Z,3
2023-03-03T05:40:23.356Z,3
2023-03-03T05:41:23.356Z,6
2023-03-03T05:42:23.414Z,6
2023-03-03T05:43:23.360Z,6
2023-03-03T05:44:23.357Z,6
2023-03-03T05:45:23.365Z,6
2023-03-03T05:46:23.432Z,11
2023-03-03T05:47:23.359Z,11
2023-03-03T05:48:23.358Z,11
2023-03-03T05:49:23.384Z,11
2023-03-03T05:50:23.358Z,11
2023-03-03T05:51:23.441Z,19
2023-03-03T05:52:23.364Z,19
2023-03-03T05:53:23.363Z,19
2023-03-03T05:54:23.365Z,19
2023-03-03T05:55:23.364Z,19
2023-03-03T05:56:23.383Z,29
2023-03-03T05:57:23.375Z,29
2023-03-03T05:58:23.366Z,29
2023-03-03T05:59:23.368Z,29
2023-03-03T06:00:23.403Z,29
2023-03-03T06:01:23.366Z,34
2023-03-03T06:02:23.374Z,34
2023-03-03T06:03:23.368Z,34
2023-03-03T06:04:23.372Z,34
2023-03-03T06:05:23.397Z,34
2023-03-03T06:06:23.367Z,38
2023-03-03T06:07:23.370Z,38
2023-03-03T06:08:23.374Z,38
2023-03-03T06:09:23.371Z,40
2023-03-03T06:10:23.375Z,40
2023-03-03T06:11:23.369Z,40
2023-03-03T06:12:23.370Z,40
2023-03-03T06:13:23.385Z,40
2023-03-03T06:14:24.802Z,53
2023-03-03T06:15:23.417Z,53
2023-03-03T06:16:23.390Z,53
2023-03-03T06:17:23.370Z,53
2023-03-03T06:18:23.374Z,53
2023-03-03T06:19:23.372Z,69
2023-03-03T06:20:23.374Z,69
2023-03-03T06:21:23.405Z,69
2023-03-03T06:22:23.374Z,69
2023-03-03T06:23:23.381Z,69
2023-03-03T06:24:23.376Z,82
2023-03-03T06:25:23.393Z,82
2023-03-03T06:26:23.379Z,82
2023-03-03T06:27:23.379Z,82
2023-03-03T06:28:23.379Z,82
2023-03-03T06:29:23.382Z,86
2023-03-03T06:30:23.386Z,86
2023-03-03T06:31:23.484Z,86
2023-03-03T06:32:23.417Z,86
2023-03-03T06:33:23.387Z,86
2023-03-03T06:34:23.380Z,101
2023-03-03T06:35:23.405Z,101
2023-03-03T06:36:23.382Z,101
2023-03-03T06:37:23.401Z,101
2023-03-03T06:38:23.379Z,101
2023-03-03T06:39:23.386Z,111
2023-03-03T06:40:23.381Z,111
2023-03-03T06:41:23.387Z,111
2023-03-03T06:42:23.385Z,111
2023-03-03T06:43:23.403Z,111
2023-03-03T06:44:23.405Z,129
2023-03-03T06:45:23.392Z,129
2023-03-03T06:46:23.385Z,129
2023-03-03T06:47:23.449Z,129
2023-03-03T06:48:23.393Z,129
2023-03-03T06:49:23.394Z,166
2023-03-03T06:50:23.395Z,166
2023-03-03T06:51:23.429Z,166
2023-03-03T06:52:23.398Z,166
2023-03-03T06:53:23.422Z,166
2023-03-03T06:54:25.805Z,192
2023-03-03T06:55:23.410Z,192
2023-03-03T06:56:23.405Z,192
2023-03-03T06:57:23.412Z,192
2023-03-03T06:58:23.400Z,192
2023-03-03T06:59:23.403Z,199
2023-03-03T07:00:23.412Z,199
2023-03-03T07:01:23.515Z,199
2023-03-03T07:02:23.414Z,199
2023-03-03T07:03:23.413Z,199
2023-03-03T07:04:23.462Z,188
2023-03-03T07:05:23.413Z,188
2023-03-03T07:06:23.442Z,188
2023-03-03T07:07:23.418Z,188
2023-03-03T07:08:23.420Z,188
2023-03-03T07:09:23.479Z,191
2023-03-03T07:10:23.421Z,191
2023-03-03T07:11:23.440Z,191
2023-03-03T07:12:23.427Z,191
2023-03-03T07:13:23.446Z,191
2023-03-03T07:14:23.436Z,233
2023-03-03T07:15:23.436Z,233
2023-03-03T07:16:23.442Z,233
2023-03-03T07:17:23.438Z,233
2023-03-03T07:18:23.442Z,233
2023-03-03T07:19:23.456Z,233
2023-03-03T07:20:23.448Z,262
2023-03-03T07:21:23.449Z,262
2023-03-03T07:22:23.446Z,262
2023-03-03T07:23:23.455Z,262
2023-03-03T07:24:23.452Z,262
2023-03-03T07:25:23.473Z,304
2023-03-03T07:26:23.454Z,304
2023-03-03T07:27:23.454Z,304
2023-03-03T07:28:23.475Z,304
2023-03-03T07:29:23.460Z,304
2023-03-03T07:30:23.481Z,323
2023-03-03T07:31:23.461Z,323
2023-03-03T07:32:23.493Z,323
2023-03-03T07:33:23.463Z,323
2023-03-03T07:34:23.489Z,323
2023-03-03T07:35:23.504Z,343
2023-03-03T07:36:23.471Z,343
2023-03-03T07:37:23.474Z,343
2023-03-03T07:38:23.471Z,343
2023-03-03T07:39:23.475Z,343
2023-03-03T07:40:23.479Z,359
2023-03-03T07:41:23.517Z,359
2023-03-03T07:42:23.479Z,359
2023-03-03T07:43:23.479Z,376
2023-03-03T07:44:23.500Z,376
2023-03-03T07:45:23.482Z,376
2023-03-03T07:46:23.514Z,376
2023-03-03T07:47:23.486Z,376
2023-03-03T07:48:23.484Z,392
2023-03-03T07:49:23.492Z,392
2023-03-03T07:50:23.501Z,392
2023-03-03T07:51:23.488Z,392
2023-03-03T07:52:23.487Z,392
2023-03-03T07:53:23.489Z,376
2023-03-03T07:54:23.493Z,376
2023-03-03T07:55:23.490Z,376
2023-03-03T07:56:23.500Z,376
2023-03-03T07:57:23.533Z,376
2023-03-03T07:58:23.504Z,383
2023-03-03T07:59:23.495Z,383
2023-03-03T08:00:23.527Z,383
2023-03-03T08:01:23.496Z,383
2023-03-03T08:02:23.497Z,427
2023-03-03T08:03:23.517Z,427
2023-03-03T08:04:23.600Z,427
2023-03-03T08:05:23.697Z,427
2023-03-03T08:06:23.508Z,427
2023-03-03T08:07:23.511Z,394
2023-03-03T08:08:23.506Z,394
2023-03-03T08:09:23.507Z,394
2023-03-03T08:10:23.541Z,394
2023-03-03T08:11:23.518Z,394
2023-03-03T08:12:23.504Z,381
2023-03-03T08:13:23.527Z,381
2023-03-03T08:14:23.506Z,381
2023-03-03T08:15:23.505Z,381
2023-03-03T08:16:23.514Z,381
2023-03-03T08:17:23.506Z,435
2023-03-03T08:18:23.512Z,435
2023-03-03T08:19:23.514Z,436
2023-03-03T08:20:23.508Z,436
2023-03-03T08:21:23.504Z,436
2023-03-03T08:22:23.506Z,436
2023-03-03T08:23:23.507Z,436
2023-03-03T08:24:23.512Z,449
2023-03-03T08:25:23.507Z,449
2023-03-03T08:26:23.511Z,449
2023-03-03T08:27:23.507Z,449
2023-03-03T08:28:23.545Z,449
2023-03-03T08:29:23.537Z,562
2023-03-03T08:30:23.510Z,562
2023-03-03T08:31:38.625Z,562
2023-03-03T08:32:23.604Z,562
2023-03-03T08:33:23.520Z,639
2023-03-03T08:34:23.514Z,639
2023-03-03T08:35:23.549Z,639
2023-03-03T08:36:23.519Z,639
2023-03-03T08:37:23.516Z,639
2023-03-03T08:38:23.523Z,697
2023-03-03T08:39:23.521Z,697
2023-03-03T08:40:23.514Z,697
2023-03-03T08:41:23.524Z,697
2023-03-03T08:42:23.513Z,697
2023-03-03T08:43:23.511Z,678
2023-03-03T08:44:23.537Z,678
2023-03-03T08:45:23.543Z,678
2023-03-03T08:46:23.536Z,678
2023-03-03T08:47:23.528Z,678
2023-03-03T08:48:23.515Z,758
2023-03-03T08:49:23.518Z,758
2023-03-03T08:50:23.522Z,758
2023-03-03T08:51:23.519Z,758
2023-03-03T08:52:23.526Z,758
2023-03-03T08:53:23.530Z,680
2023-03-03T08:54:23.523Z,680
2023-03-03T08:55:23.526Z,680
2023-03-03T08:56:23.525Z,680
2023-03-03T08:57:23.535Z,680
2023-03-03T08:58:30.576Z,664
2023-03-03T08:59:23.541Z,664
2023-03-03T09:00:23.525Z,664
2023-03-03T09:01:23.639Z,664
2023-03-03T09:02:23.531Z,664
2023-03-03T09:03:23.530Z,710
2023-03-03T09:04:23.578Z,710
2023-03-03T09:05:23.533Z,710
2023-03-03T09:06:23.538Z,710
2023-03-03T09:07:23.530Z,710
2023-03-03T09:08:23.538Z,754
2023-03-03T09:09:23.539Z,754
2023-03-03T09:10:23.541Z,754
2023-03-03T09:11:23.580Z,754
2023-03-03T09:12:23.542Z,754
2023-03-03T09:13:23.554Z,860
2023-03-03T09:14:23.541Z,860
2023-03-03T09:15:23.539Z,860
2023-03-03T09:16:23.605Z,860
2023-03-03T09:17:23.564Z,860
2023-03-03T09:18:23.546Z,886
2023-03-03T09:19:23.545Z,886
2023-03-03T09:20:23.548Z,886
2023-03-03T09:21:23.551Z,886
2023-03-03T09:22:23.561Z,886
2023-03-03T09:23:23.548Z,846
2023-03-03T09:24:23.548Z,846
2023-03-03T09:25:23.552Z,846
2023-03-03T09:26:23.554Z,846
2023-03-03T09:27:23.553Z,846
2023-03-03T09:28:23.556Z,851
2023-03-03T09:29:23.554Z,851
2023-03-03T09:30:23.573Z,851
2023-03-03T09:31:23.566Z,851
2023-03-03T09:32:23.656Z,851
2023-03-03T09:33:23.586Z,881
2023-03-03T09:34:23.560Z,881
2023-03-03T09:35:23.604Z,881
2023-03-03T09:36:23.579Z,881
2023-03-03T09:37:23.603Z,881
2023-03-03T09:38:23.566Z,935
2023-03-03T09:39:23.560Z,935
2023-03-03T09:40:23.594Z,935
2023-03-03T09:41:23.583Z,935
2023-03-03T09:42:23.570Z,935
2023-03-03T09:43:23.572Z,1033
2023-03-03T09:44:23.569Z,1033
2023-03-03T09:45:23.575Z,1033
2023-03-03T09:46:23.592Z,1033
2023-03-03T09:47:23.577Z,1033
2023-03-03T09:48:23.575Z,982
2023-03-03T09:49:26.118Z,969
2023-03-03T09:50:23.608Z,968
2023-03-03T09:51:23.572Z,968
2023-03-03T09:52:23.572Z,968
2023-03-03T09:53:23.595Z,968
2023-03-03T09:54:23.594Z,968
2023-03-03T09:55:25.322Z,912
2023-03-03T09:56:23.577Z,912
2023-03-03T09:57:23.580Z,912
2023-03-03T09:58:23.583Z,912
2023-03-03T09:59:23.583Z,912
2023-03-03T10:00:23.589Z,896
2023-03-03T10:01:23.583Z,896
2023-03-03T10:02:23.582Z,896
2023-03-03T10:03:23.624Z,896
2023-03-03T10:04:23.611Z,896
2023-03-03T10:05:23.635Z,947
2023-03-03T10:06:23.583Z,947
2023-03-03T10:07:23.589Z,947
2023-03-03T10:08:23.590Z,947
2023-03-03T10:09:23.599Z,947
2023-03-03T10:10:23.608Z,957
2023-03-03T10:11:23.604Z,957
2023-03-03T10:12:23.591Z,957
2023-03-03T10:13:23.590Z,957
2023-03-03T10:14:23.592Z,957
2023-03-03T10:15:23.590Z,940
2023-03-03T10:16:23.710Z,940
2023-03-03T10:17:23.594Z,940
2023-03-03T10:18:23.595Z,940
2023-03-03T10:19:23.593Z,940
2023-03-03T10:20:23.627Z,1003
2023-03-03T10:21:23.619Z,1003
2023-03-03T10:22:23.604Z,1003
2023-03-03T10:23:23.600Z,1003
2023-03-03T10:24:23.600Z,1003
2023-03-03T10:25:23.598Z,1050
2023-03-03T10:26:31.642Z,1050
2023-03-03T10:27:23.602Z,1050
2023-03-03T10:28:23.600Z,1050
2023-03-03T10:29:23.630Z,1050
2023-03-03T10:30:37.196Z,1088
2023-03-03T10:31:28.197Z,1088
2023-03-03T10:32:23.905Z,1088
2023-03-03T10:33:23.870Z,1088
2023-03-03T10:34:23.608Z,1088
2023-03-03T10:35:23.671Z,1174
2023-03-03T10:36:23.617Z,1174
2023-03-03T10:37:23.631Z,1174
2023-03-03T10:38:23.610Z,1174
2023-03-03T10:39:23.602Z,1174
2023-03-03T10:40:23.612Z,1073
2023-03-03T10:41:23.611Z,1073
2023-03-03T10:42:23.608Z,1073
2023-03-03T10:43:31.642Z,1073
2023-03-03T10:44:23.613Z,1073
2023-03-03T10:45:23.605Z,1135
2023-03-03T10:46:23.604Z,1135
2023-03-03T10:47:23.612Z,1135
2023-03-03T10:48:23.611Z,1135
2023-03-03T10:49:23.606Z,1135
2023-03-03T10:50:23.612Z,1225
2023-03-03T10:51:23.616Z,1225
2023-03-03T10:52:23.621Z,1225
2023-03-03T10:53:23.640Z,1225
2023-03-03T10:54:23.611Z,1225
2023-03-03T10:55:23.610Z,1489
2023-03-03T10:56:23.612Z,1452
2023-03-03T10:57:23.635Z,1477
2023-03-03T10:58:23.717Z,1477
2023-03-03T10:59:23.607Z,1477
2023-03-03T11:00:23.609Z,1477
2023-03-03T11:01:24.622Z,1477
2023-03-03T11:02:23.616Z,1437
2023-03-03T11:03:23.612Z,1437
2023-03-03T11:04:23.631Z,1437
2023-03-03T11:05:23.616Z,1437
2023-03-03T11:06:23.625Z,1437
2023-03-03T11:07:23.615Z,1833
2023-03-03T11:08:23.618Z,1833
2023-03-03T11:09:23.702Z,1833
2023-03-03T11:10:23.616Z,1833
2023-03-03T11:11:23.626Z,1847
2023-03-03T11:12:23.616Z,1847
2023-03-03T11:13:23.617Z,1847
2023-03-03T11:14:23.614Z,1847
2023-03-03T11:15:23.616Z,1847
2023-03-03T11:16:23.671Z,1586
2023-03-03T11:17:23.620Z,1586
2023-03-03T11:18:25.677Z,1586
2023-03-03T11:19:23.618Z,1586
2023-03-03T11:20:23.619Z,1586
2023-03-03T11:21:23.653Z,1476
2023-03-03T11:22:23.619Z,1476
2023-03-03T11:23:23.615Z,1476
2023-03-03T11:24:25.096Z,1476
2023-03-03T11:25:23.675Z,1476
2023-03-03T11:26:23.627Z,1433
2023-03-03T11:27:23.627Z,1433
2023-03-03T11:28:23.639Z,1433
2023-03-03T11:29:23.633Z,1433
2023-03-03T11:30:23.631Z,1298
2023-03-03T11:31:25.121Z,1298
2023-03-03T11:32:23.638Z,1298
2023-03-03T11:33:23.635Z,1298
2023-03-03T11:34:23.637Z,1298
2023-03-03T11:35:23.714Z,1361
2023-03-03T11:36:23.640Z,1361
2023-03-03T11:37:23.638Z,1361
2023-03-03T11:38:23.644Z,1361
2023-03-03T11:39:23.652Z,1361
2023-03-03T11:40:23.642Z,1164
2023-03-03T11:41:23.670Z,1164
2023-03-03T11:42:23.908Z,1164
2023-03-03T11:43:35.958Z,1164
2023-03-03T11:44:23.653Z,1164
2023-03-03T11:45:23.644Z,1154
2023-03-03T11:46:23.652Z,1154
2023-03-03T11:47:23.652Z,1154
2023-03-03T11:48:23.652Z,1154
2023-03-03T11:49:23.657Z,1154
2023-03-03T11:50:23.660Z,1051
2023-03-03T11:51:23.658Z,1051
2023-03-03T11:52:23.654Z,1051
2023-03-03T11:53:23.660Z,1051
2023-03-03T11:54:23.662Z,1051
2023-03-03T11:55:23.976Z,1018
2023-03-03T11:56:23.656Z,1018
2023-03-03T11:57:23.696Z,1018
2023-03-03T11:58:23.672Z,1018
2023-03-03T11:59:23.657Z,1018
2023-03-03T12:00:23.658Z,971
2023-03-03T12:01:23.657Z,971
2023-03-03T12:02:23.734Z,971
2023-03-03T12:03:23.667Z,971
2023-03-03T12:04:23.658Z,971
2023-03-03T12:05:23.692Z,954
2023-03-03T12:06:23.664Z,954
2023-03-03T12:07:23.663Z,954
2023-03-03T12:08:23.663Z,954
2023-03-03T12:09:23.663Z,954
2023-03-03T12:10:23.668Z,899
2023-03-03T12:11:23.669Z,899
2023-03-03T12:12:23.670Z,899
2023-03-03T12:13:23.805Z,899
2023-03-03T12:14:23.670Z,899
2023-03-03T12:15:23.671Z,914
2023-03-03T12:16:23.713Z,914
2023-03-03T12:17:23.674Z,914
2023-03-03T12:18:23.676Z,914
2023-03-03T12:19:23.674Z,914
2023-03-03T12:20:23.670Z,894
2023-03-03T12:21:23.673Z,894
2023-03-03T12:22:23.684Z,902
2023-03-03T12:23:23.684Z,902
2023-03-03T12:24:23.676Z,902
2023-03-03T12:25:23.675Z,920
2023-03-03T12:26:23.680Z,920
2023-03-03T12:27:23.682Z,920
2023-03-03T12:28:23.676Z,920
2023-03-03T12:29:23.712Z,920
2023-03-03T12:30:23.684Z,893
2023-03-03T12:31:23.768Z,893
2023-03-03T12:32:23.793Z,893
2023-03-03T12:33:23.697Z,893
2023-03-03T12:34:23.694Z,893
2023-03-03T12:35:23.725Z,834
2023-03-03T12:36:23.707Z,834
2023-03-03T12:37:23.697Z,834
2023-03-03T12:38:23.707Z,834
2023-03-03T12:39:33.899Z,834
2023-03-03T12:40:23.687Z,874
2023-03-03T12:41:23.693Z,874
2023-03-03T12:42:23.700Z,874
2023-03-03T12:43:23.704Z,874
2023-03-03T12:44:23.692Z,874
2023-03-03T12:45:23.721Z,947
2023-03-03T12:46:28.436Z,947
2023-03-03T12:47:23.697Z,947
2023-03-03T12:48:23.699Z,947
2023-03-03T12:49:23.700Z,947
2023-03-03T12:50:23.701Z,1074
2023-03-03T12:51:23.707Z,1074
2023-03-03T12:52:23.713Z,1074
2023-03-03T12:53:23.701Z,1074
2023-03-03T12:54:23.703Z,1074
2023-03-03T12:55:23.703Z,1359
2023-03-03T12:56:23.703Z,1359
2023-03-03T12:57:23.702Z,1359
2023-03-03T12:58:23.712Z,1359
2023-03-03T12:59:23.723Z,1359
2023-03-03T13:00:23.713Z,1605
2023-03-03T13:01:23.758Z,1605
2023-03-03T13:02:23.714Z,1605
2023-03-03T13:03:28.341Z,1605
2023-03-03T13:04:23.761Z,1605
2023-03-03T13:05:23.729Z,1728
2023-03-03T13:06:23.719Z,1728
2023-03-03T13:07:23.719Z,1728
2023-03-03T13:08:23.717Z,1728
2023-03-03T13:09:23.736Z,1728
2023-03-03T13:10:23.726Z,2163
2023-03-03T13:11:23.726Z,2163
2023-03-03T13:12:23.721Z,2163
2023-03-03T13:13:23.743Z,2163
2023-03-03T13:14:23.727Z,2163
2023-03-03T13:15:31.567Z,2487
2023-03-03T13:16:29.134Z,2487
2023-03-03T13:17:23.805Z,2487
2023-03-03T13:18:23.739Z,2487
2023-03-03T13:19:23.729Z,2487
2023-03-03T13:20:23.734Z,2167
2023-03-03T13:21:23.737Z,2167
2023-03-03T13:22:23.731Z,2167
2023-03-03T13:23:23.732Z,2167
2023-03-03T13:24:23.739Z,2167
2023-03-03T13:25:23.825Z,1526
2023-03-03T13:26:23.783Z,1526
2023-03-03T13:27:23.732Z,1526
2023-03-03T13:28:23.737Z,1526
2023-03-03T13:29:23.738Z,1526
2023-03-03T13:30:23.737Z,1582
2023-03-03T13:31:23.751Z,1582
2023-03-03T13:32:23.805Z,1582
2023-03-03T13:33:23.765Z,1582
2023-03-03T13:34:23.744Z,1582
2023-03-03T13:35:23.798Z,2187
2023-03-03T13:36:23.747Z,2187
2023-03-03T13:37:23.744Z,2187
2023-03-03T13:38:23.761Z,2187
2023-03-03T13:39:23.772Z,2187
2023-03-03T13:40:23.754Z,1753
2023-03-03T13:41:23.760Z,1753
2023-03-03T13:42:23.756Z,1753
2023-03-03T13:43:23.756Z,1753
2023-03-03T13:44:23.757Z,1753
2023-03-03T13:45:23.871Z,2747
2023-03-03T13:46:23.762Z,2747
2023-03-03T13:47:23.758Z,2747
2023-03-03T13:48:23.762Z,2747
2023-03-03T13:49:23.791Z,2747
2023-03-03T13:50:23.767Z,2479
2023-03-03T13:51:23.832Z,2479
2023-03-03T13:52:23.772Z,2479
2023-03-03T13:53:23.768Z,2479
2023-03-03T13:54:23.771Z,2479
2023-03-03T13:55:23.774Z,2115
2023-03-03T13:56:23.766Z,2115
2023-03-03T13:57:23.772Z,2115
2023-03-03T13:58:23.771Z,2115
2023-03-03T13:59:23.774Z,2115
2023-03-03T14:00:23.778Z,1658
2023-03-03T14:01:23.787Z,1658
2023-03-03T14:02:23.782Z,1658
2023-03-03T14:03:23.777Z,1658
2023-03-03T14:04:23.897Z,1658
2023-03-03T14:05:23.797Z,1594